EJU13NC EGNM-LFPG
Flight info
| Callsign | EJU13NC |
|---|---|
| Flight time | N/A |
| Altitude | 23000 |
| Route | POL DCT MCT DCT LISTO P18 STAFA L8 HON/N0404F290 UL612 WOD UM605 BIBAX |
| Aircraft | A320/M-SDE2E3FGHIJ1RWXYZ/LB1 |
Departure
| Time | 2026-05-04 10:51 |
|---|---|
| Airport | Leeds Bradford Airport (EGNM) |
Arrival
| Time | N/A |
|---|---|
| Airport | Charles de Gaulle International Airport (LFPG) |
| Time | Latitude | Longitude | Altitude | Speed | Heading |
|---|---|---|---|---|---|
| 2026-05-04 10:37 | 53.86862 | -1.65908 | 673 ft | 0 kts | 3° |
| 2026-05-04 10:39 | 53.86814 | -1.65950 | 677 ft | 0 kts | 91° |
| 2026-05-04 10:45 | 53.86814 | -1.65940 | 676 ft | 4 kts | 91° |
| 2026-05-04 10:45 | 53.86813 | -1.65903 | 675 ft | 0 kts | 91° |
| 2026-05-04 10:45 | 53.86813 | -1.65902 | 675 ft | 0 kts | 91° |
| 2026-05-04 10:46 | 53.86813 | -1.65866 | 674 ft | 7 kts | 91° |
| 2026-05-04 10:46 | 53.86812 | -1.65790 | 672 ft | 10 kts | 88° |
| 2026-05-04 10:46 | 53.86814 | -1.65559 | 664 ft | 19 kts | 90° |
| 2026-05-04 10:46 | 53.86805 | -1.65443 | 659 ft | 7 kts | 124° |
| 2026-05-04 10:47 | 53.86752 | -1.65418 | 659 ft | 8 kts | 179° |
| 2026-05-04 10:47 | 53.86700 | -1.65420 | 661 ft | 8 kts | 183° |
| 2026-05-04 10:47 | 53.86639 | -1.65426 | 663 ft | 10 kts | 184° |
| 2026-05-04 10:47 | 53.86563 | -1.65434 | 667 ft | 12 kts | 183° |
| 2026-05-04 10:49 | 53.85897 | -1.64926 | 664 ft | 15 kts | 143° |
| 2026-05-04 10:49 | 53.85889 | -1.64981 | 666 ft | 5 kts | 315° |
| 2026-05-04 10:50 | 53.85907 | -1.65011 | 666 ft | 0 kts | 317° |
| 2026-05-04 10:51 | 53.88404 | -1.68829 | 2004 ft | 154 kts | 316° |
| 2026-05-04 10:52 | 53.89146 | -1.70281 | 2270 ft | 173 kts | 315° |
| 2026-05-04 10:52 | 53.89903 | -1.72005 | 2515 ft | 200 kts | 296° |
| 2026-05-04 10:52 | 53.90015 | -1.74537 | 2805 ft | 230 kts | 265° |
| 2026-05-04 10:54 | 53.83943 | -1.93596 | 8426 ft | 281 kts | 269° |
| 2026-05-04 10:54 | 53.84293 | -1.96850 | 9256 ft | 285 kts | 293° |
| 2026-05-04 10:56 | 53.79945 | -2.14245 | 13592 ft | 341 kts | 170° |
| 2026-05-04 10:56 | 53.77639 | -2.13202 | 14289 ft | 345 kts | 162° |
| 2026-05-04 10:56 | 53.75368 | -2.12015 | 14949 ft | 347 kts | 167° |
| 2026-05-04 10:57 | 53.72978 | -2.11400 | 15594 ft | 349 kts | 179° |
| 2026-05-04 10:57 | 53.71339 | -2.11549 | 16042 ft | 350 kts | 189° |
| 2026-05-04 10:57 | 53.69760 | -2.12112 | 16462 ft | 351 kts | 194° |
| 2026-05-04 10:57 | 53.65793 | -2.13794 | 17526 ft | 356 kts | 194° |
| 2026-05-04 10:58 | 53.63383 | -2.14830 | 18163 ft | 359 kts | 194° |
| 2026-05-04 10:58 | 53.60945 | -2.15862 | 18748 ft | 362 kts | 194° |
| 2026-05-04 10:58 | 53.59291 | -2.16553 | 19123 ft | 364 kts | 194° |
| 2026-05-04 10:58 | 53.56851 | -2.17563 | 19669 ft | 367 kts | 194° |
| 2026-05-04 10:59 | 53.55174 | -2.18256 | 20050 ft | 369 kts | 194° |
| 2026-05-04 10:59 | 53.51005 | -2.19976 | 20977 ft | 373 kts | 194° |
| 2026-05-04 10:59 | 53.48472 | -2.21013 | 21539 ft | 376 kts | 194° |
| 2026-05-04 10:59 | 53.45920 | -2.22058 | 22084 ft | 379 kts | 194° |
| 2026-05-04 11:00 | 53.43348 | -2.23110 | 22627 ft | 382 kts | 194° |
| 2026-05-04 11:01 | 53.25609 | -2.23228 | 23081 ft | 363 kts | 171° |
| 2026-05-04 11:02 | 53.23120 | -2.22497 | 23084 ft | 363 kts | 171° |
| 2026-05-04 11:02 | 53.20633 | -2.21763 | 23081 ft | 363 kts | 171° |